Terminal Aerodrome Forecast
Issued by NWS

Home | Current Version | Previous Version | Text Only | Print | Product List | Glossary On
Versions: 1 2 3 4 5 6 7 8 9 10 11 12 13
000
FTUS42 KTAE 041720
TAFECP
TAF
KECP 041720Z 0418/0518 13010G20KT P6SM -SHRA BKN015
      TEMPO 0422/0502 2SM +TSRA BKN007 OVC012CB
     FM050300 14005KT 2SM -RA BR OVC003
     FM051300 10007KT 2SM +RA VCTS BKN005 OVC009CB=

USA.gov is the U.S. government's official web portal to all federal, state and local government web resources and services.